This is the latest recevied weather packets stored in our database for station/object NY3Q. If no packets are shown the sender has not sent any weather packets the latest 10 day(s).
| Time | Temp. | Humidity | Pressure | Rain* | Wind** | Luminosity | Snow |
|---|---|---|---|---|---|---|---|
| 1777392321 | 28.33° C | 61% | 1021.5 hPa | 0 mm | - | 608 W/m² | - |
| 1777391413 | 27.22° C | 67% | 1021.5 hPa | 0 mm | - | 550 W/m² | - |
| 1777390502 | 27.22° C | 66% | 1021.4 hPa | 0 mm | - | 559 W/m² | - |
| 1777389895 | 26.67° C | 67% | 1021.2 hPa | 0 mm | - | 354 W/m² | - |
| 1777389591 | 26.11° C | 68% | 1021.5 hPa | 0 mm | - | 242 W/m² | - |
| 1777388380 | 27.22° C | 65% | 1021.3 hPa | 0 mm | - | 564 W/m² | - |
| 1777386863 | 26.11° C | 72% | 1021.1 hPa | 0 mm | - | 530 W/m² | - |
| 1777386560 | 25° C | 75% | 1021.4 hPa | 0 mm | - | 554 W/m² | - |
| 1777386257 | 25° C | 76% | 1021.6 hPa | 0 mm | - | 510 W/m² | - |
| 1777385955 | 25° C | 76% | 1021.3 hPa | 0 mm | - | 215 W/m² | - |
| 1777385651 | 24.44° C | 76% | 1021.2 hPa | 0 mm | - | 134 W/m² | - |
| 1777384742 | 25° C | 78% | 1021.2 hPa | 0 mm | - | 265 W/m² | - |
| 1777383530 | 25° C | 78% | 1021 hPa | 0 mm | - | 388 W/m² | - |
| 1777383226 | 25° C | 79% | 1021.1 hPa | 0 mm | - | 389 W/m² | - |
| 1777382618 | 23.89° C | 82% | 1021.1 hPa | 0 mm | - | 299 W/m² | - |
| 1777382315 | 23.89° C | 83% | 1021.2 hPa | 0 mm | - | 114 W/m² | - |
| 1777382012 | 23.89° C | 83% | 1020.9 hPa | 0 mm | - | 231 W/m² | - |
| 1777381712 | 23.89° C | 85% | 1020.9 hPa | 0 mm | - | 172 W/m² | - |
| 1777380801 | 23.33° C | 88% | 1021 hPa | 0 mm | - | 134 W/m² | - |
| 1777378678 | 21.67° C | 94% | 1020.3 hPa | 0 mm | - | 37 W/m² | - |
| 1777378069 | 21.11° C | 95% | 1020.5 hPa | 0 mm | - | 57 W/m² | - |
| 1777377154 | 20.56° C | 95% | 1020.5 hPa | 0 mm | - | 28 W/m² | - |
| 1777376852 | 20.56° C | 95% | 1020 hPa | 0 mm | - | 41 W/m² | - |
| 1777376245 | 20° C | 95% | 1019.8 hPa | 0 mm | - | 33 W/m² | - |
| 1777375939 | 19.44° C | 95% | 1019.6 hPa | 0 mm | - | 29 W/m² | - |
* Rain latest hour (hover to see other rain measurements)
** Current wind speed in m/s (hover to see current wind gust speed)